Time;durP1;ratioP1;P1;durP2;ratioP2;P2;SDS_P1;SDS_P2;PMS_P1;PMS_P2;Temp;Humidity;BMP_temperature;BMP_pressure;BME280_temperature;BME280_humidity;BME280_pressure;Samples;Min_cycle;Max_cycle;Signal;HPM_P1;HPM_P2
2024/01/23 00:00:18;;;;;;;;;2.00;0.00;;;;;9.55;67.97;102361.97;5124598;27;54798;-59
2024/01/23 00:02:44;;;;;;;;;2.00;1.00;;;;;9.53;68.13;102355.81;5120568;27;45340;-59
2024/01/23 00:05:09;;;;;;;;;1.00;1.00;;;;;9.51;67.91;102360.28;5117472;27;45447;-59
2024/01/23 00:07:34;;;;;;;;;0.00;0.00;;;;;9.48;68.39;102379.81;5120049;27;70175;-59
2024/01/23 00:10:00;;;;;;;;;0.00;0.00;;;;;9.44;68.77;102381.66;5120137;27;70065;-59
2024/01/23 00:12:25;;;;;;;;;3.00;0.67;;;;;9.40;68.80;102373.81;5120961;27;45416;-59
2024/01/23 00:14:51;;;;;;;;;0.67;0.67;;;;;9.40;68.66;102384.44;5118766;27;70191;-59
2024/01/23 00:17:16;;;;;;;;;2.00;1.00;;;;;9.36;68.45;102388.91;5119101;27;75647;-59
2024/01/23 00:19:41;;;;;;;;;2.00;0.00;;;;;9.34;68.72;102390.72;5121112;27;54058;-59
2024/01/23 00:22:07;;;;;;;;;2.67;0.00;;;;;9.31;69.15;102377.50;5119895;27;45631;-59
2024/01/23 00:24:32;;;;;;;;;2.00;0.00;;;;;9.29;69.03;102387.28;5119568;27;68879;-59
2024/01/23 00:26:57;;;;;;;;;1.00;1.00;;;;;9.27;68.86;102392.63;5119737;27;75871;-59
2024/01/23 00:29:22;;;;;;;;;0.00;0.00;;;;;9.24;69.00;102392.69;5114085;27;70191;-59
2024/01/23 00:31:48;;;;;;;;;0.67;0.67;;;;;9.23;69.64;102396.25;5116186;27;65118;-59
2024/01/23 00:34:13;;;;;;;;;2.67;0.00;;;;;9.22;69.76;102404.25;5118465;27;56057;-59
2024/01/23 00:36:38;;;;;;;;;0.67;0.33;;;;;9.21;70.02;102406.00;5118415;27;46073;-59
2024/01/23 00:39:04;;;;;;;;;0.00;0.00;;;;;9.21;69.80;102405.13;5118851;27;45467;-59
2024/01/23 00:41:31;;;;;;;;;2.00;1.00;;;;;9.22;70.20;102406.91;5120200;27;45617;-59
2024/01/23 00:43:56;;;;;;;;;1.00;1.00;;;;;9.23;70.20;102412.19;5119110;27;45578;-59
2024/01/23 00:46:21;;;;;;;;;1.00;0.00;;;;;9.25;69.95;102404.16;5118319;27;46094;-59
2024/01/23 00:48:47;;;;;;;;;1.00;1.00;;;;;9.27;70.10;102397.06;5114477;27;70970;-59
2024/01/23 00:51:12;;;;;;;;;1.33;1.33;;;;;9.30;69.82;102401.44;5116966;27;68298;-59
2024/01/23 00:53:37;;;;;;;;;1.33;0.00;;;;;9.33;69.96;102406.69;5117390;27;68387;-59
2024/01/23 00:56:03;;;;;;;;;1.00;1.00;;;;;9.37;69.93;102419.00;5119208;27;46905;-59
2024/01/23 00:58:28;;;;;;;;;3.33;1.00;;;;;9.36;69.34;102428.75;5120843;27;45413;-59
2024/01/23 01:00:54;;;;;;;;;2.00;0.67;;;;;9.35;69.04;102428.78;5114900;27;45490;-59
2024/01/23 01:03:19;;;;;;;;;2.33;1.00;;;;;9.31;69.16;102430.63;5115364;27;66689;-59
2024/01/23 01:05:45;;;;;;;;;1.00;0.33;;;;;9.27;69.00;102439.56;5125774;27;75470;-59
2024/01/23 01:08:11;;;;;;;;;1.00;0.67;;;;;9.25;69.02;102436.03;5119022;27;45455;-59
2024/01/23 01:10:36;;;;;;;;;0.00;0.00;;;;;9.21;69.06;102435.22;5128153;27;64250;-59
2024/01/23 01:13:01;;;;;;;;;1.33;0.67;;;;;9.19;69.24;102441.44;5119001;27;67182;-59
2024/01/23 01:15:27;;;;;;;;;0.00;0.00;;;;;9.19;69.34;102446.75;5127640;27;46152;-59
2024/01/23 01:17:52;;;;;;;;;0.00;0.00;;;;;9.16;69.67;102445.03;5116961;27;71427;-59
2024/01/23 01:20:17;;;;;;;;;1.00;1.00;;;;;9.14;69.90;102449.50;5119643;27;69327;-60
2024/01/23 01:22:43;;;;;;;;;2.00;0.67;;;;;9.13;70.00;102441.59;5118665;27;46191;-59
2024/01/23 01:25:11;;;;;;;;;0.67;0.00;;;;;9.12;70.46;102442.47;5124359;27;46220;-59
2024/01/23 01:27:36;;;;;;;;;1.00;0.00;;;;;9.10;70.37;102450.47;5118108;27;45795;-59
2024/01/23 01:30:08;;;;;;;;;1.33;0.33;;;;;9.10;70.55;102447.81;5121156;27;69095;-59
2024/01/23 01:32:33;;;;;;;;;0.00;0.00;;;;;9.09;70.78;102449.59;5117714;27;45617;-59
2024/01/23 01:34:58;;;;;;;;;0.00;0.00;;;;;9.07;71.03;102455.81;5109935;27;76632;-59
2024/01/23 01:37:24;;;;;;;;;0.00;0.00;;;;;9.07;71.14;102462.03;5116330;27;45285;-59
2024/01/23 01:39:50;;;;;;;;;1.00;0.00;;;;;9.06;71.02;102465.56;5122668;27;45355;-59
2024/01/23 01:42:15;;;;;;;;;0.00;0.00;;;;;9.05;71.56;102473.56;5116436;27;64684;-59
2024/01/23 01:44:41;;;;;;;;;1.00;1.00;;;;;9.05;71.73;102476.22;5118205;27;46836;-59
2024/01/23 01:47:08;;;;;;;;;0.00;0.00;;;;;9.03;71.74;102470.91;5118683;27;45440;-59
2024/01/23 01:49:33;;;;;;;;;1.00;1.00;;;;;9.02;71.41;102471.84;5116007;27;45468;-59
2024/01/23 01:51:59;;;;;;;;;0.67;0.00;;;;;9.01;72.29;102478.06;5142978;27;45534;-59
2024/01/23 01:54:26;;;;;;;;;1.33;0.00;;;;;9.00;71.93;102476.28;5117227;27;68013;-59
2024/01/23 01:56:54;;;;;;;;;0.00;0.00;;;;;8.99;72.12;102484.28;5114834;27;73325;-59
2024/01/23 01:59:20;;;;;;;;;0.33;0.00;;;;;8.99;72.52;102489.59;5115810;27;68156;-59
2024/01/23 02:01:46;;;;;;;;;0.00;0.00;;;;;8.98;72.46;102496.66;5112179;27;45455;-59
2024/01/23 02:04:11;;;;;;;;;0.33;0.00;;;;;8.97;72.37;102497.59;5118303;27;46112;-59
2024/01/23 02:06:36;;;;;;;;;2.00;0.67;;;;;8.96;71.77;102492.28;5118058;27;69609;-59
2024/01/23 02:09:02;;;;;;;;;0.00;0.00;;;;;8.92;72.42;102500.31;5126061;27;45501;-59
2024/01/23 02:11:28;;;;;;;;;0.67;0.67;;;;;8.93;72.61;102510.03;5117603;27;45510;-59
2024/01/23 02:13:53;;;;;;;;;1.00;1.00;;;;;8.92;72.69;102507.41;5118865;27;46536;-59
2024/01/23 02:16:19;;;;;;;;;0.00;0.00;;;;;8.92;72.53;102510.06;5119200;27;45432;-59
2024/01/23 02:18:44;;;;;;;;;0.33;0.33;;;;;8.90;72.96;102509.19;5118446;27;45343;-59
2024/01/23 02:21:10;;;;;;;;;1.00;0.33;;;;;8.90;72.76;102519.81;5125436;27;45504;-59
2024/01/23 02:23:35;;;;;;;;;1.00;1.00;;;;;8.89;72.75;102508.31;5150255;27;45530;-59
2024/01/23 02:26:00;;;;;;;;;1.00;0.00;;;;;8.89;73.28;102524.25;5117356;27;45348;-59
2024/01/23 02:28:27;;;;;;;;;0.00;0.00;;;;;8.88;72.92;102526.94;5117514;27;67426;-59
2024/01/23 02:30:53;;;;;;;;;0.67;0.67;;;;;8.88;72.90;102527.78;5115468;27;45641;-59
2024/01/23 02:33:18;;;;;;;;;0.67;0.00;;;;;8.86;72.88;102526.94;5116061;27;72031;-59
2024/01/23 02:35:43;;;;;;;;;1.00;0.00;;;;;8.85;73.08;102525.19;5109619;27;72302;-59
2024/01/23 02:38:09;;;;;;;;;0.00;0.00;;;;;8.85;73.26;102529.59;5115916;27;61704;-59
2024/01/23 02:40:34;;;;;;;;;0.00;0.00;;;;;8.85;73.04;102513.69;5116755;27;45293;-59
2024/01/23 02:43:00;;;;;;;;;0.00;0.00;;;;;8.82;73.52;102519.91;5115998;27;45407;-59
2024/01/23 02:45:25;;;;;;;;;0.00;0.00;;;;;8.82;73.33;102524.38;5115062;27;45510;-59
2024/01/23 02:47:51;;;;;;;;;0.33;0.33;;;;;8.80;74.08;102531.44;5116740;27;45307;-59
2024/01/23 02:50:16;;;;;;;;;1.00;1.00;;;;;8.77;74.08;102530.63;5115329;27;45766;-59
2024/01/23 02:52:41;;;;;;;;;0.00;0.00;;;;;8.76;73.26;102533.28;5119219;27;74493;-59
2024/01/23 02:55:07;;;;;;;;;1.00;1.00;;;;;8.72;74.60;102532.47;5116688;27;69932;-59
2024/01/23 02:57:32;;;;;;;;;2.33;1.00;;;;;8.69;74.79;102528.97;5116354;27;45400;-59
2024/01/23 02:59:58;;;;;;;;;1.00;1.00;;;;;8.66;74.20;102532.53;5113883;27;68249;-59
2024/01/23 03:02:23;;;;;;;;;2.00;0.00;;;;;8.66;74.22;102519.28;5117607;27;47246;-59
2024/01/23 03:04:49;;;;;;;;;1.67;0.33;;;;;8.66;74.44;102527.25;5118156;27;50328;-59
2024/01/23 03:07:15;;;;;;;;;2.00;0.33;;;;;8.68;73.88;102537.81;5114669;27;45679;-59
2024/01/23 03:09:41;;;;;;;;;0.67;0.33;;;;;8.68;74.47;102533.41;5116887;27;45462;-59
2024/01/23 03:12:16;;;;;;;;;0.00;0.00;;;;;8.70;74.34;102525.41;5115182;27;45611;-61
2024/01/23 03:14:43;;;;;;;;;2.00;0.67;;;;;8.70;74.92;102520.13;5113189;27;45520;-59
2024/01/23 03:17:09;;;;;;;;;2.33;1.00;;;;;8.70;74.94;102520.13;5122105;27;45537;-59
2024/01/23 03:19:34;;;;;;;;;1.00;1.00;;;;;8.70;74.57;102526.28;5116658;27;45423;-59
2024/01/23 03:22:00;;;;;;;;;2.00;0.33;;;;;8.71;74.69;102537.78;5121604;27;75502;-59
2024/01/23 03:24:25;;;;;;;;;1.33;0.00;;;;;8.71;74.96;102541.31;5118709;27;68735;-59
2024/01/23 03:26:50;;;;;;;;;0.33;0.33;;;;;8.71;75.05;102549.28;5111206;27;45334;-59
2024/01/23 03:29:16;;;;;;;;;1.00;1.00;;;;;8.71;74.66;102541.31;5115243;27;69207;-59
2024/01/23 03:31:41;;;;;;;;;0.00;0.00;;;;;8.71;75.04;102551.94;5120847;27;68809;-59
2024/01/23 03:34:06;;;;;;;;;2.00;0.33;;;;;8.72;75.18;102545.72;5117260;27;69172;-59
2024/01/23 03:36:32;;;;;;;;;1.00;1.00;;;;;8.72;75.66;102539.53;5119020;27;45420;-59
2024/01/23 03:38:57;;;;;;;;;2.00;0.00;;;;;8.71;75.25;102541.31;5117481;27;70867;-59
2024/01/23 03:41:22;;;;;;;;;1.33;0.00;;;;;8.70;75.19;102542.22;5119741;27;71642;-60
2024/01/23 03:43:48;;;;;;;;;0.33;0.00;;;;;8.70;75.69;102549.31;5117926;27;73179;-59
2024/01/23 03:46:13;;;;;;;;;1.00;1.00;;;;;8.68;75.08;102551.97;5123090;27;59982;-59
2024/01/23 03:48:38;;;;;;;;;1.00;1.00;;;;;8.68;75.37;102557.28;5120386;27;48355;-59
2024/01/23 03:51:04;;;;;;;;;4.00;0.00;;;;;8.68;75.56;102554.63;5119201;27;55926;-59
2024/01/23 03:53:29;;;;;;;;;0.00;0.00;;;;;8.69;75.38;102560.81;5119267;27;45819;-59
2024/01/23 03:55:54;;;;;;;;;1.00;1.00;;;;;8.68;75.09;102567.00;5111632;27;53150;-59
2024/01/23 03:58:19;;;;;;;;;1.33;0.00;;;;;8.68;75.36;102567.00;5119672;27;62302;-59
2024/01/23 04:00:45;;;;;;;;;3.00;1.00;;;;;8.66;75.51;102564.38;5118502;27;74467;-59
2024/01/23 04:03:10;;;;;;;;;2.00;0.00;;;;;8.65;75.54;102573.22;5121975;27;68757;-59
2024/01/23 04:05:36;;;;;;;;;2.00;2.00;;;;;8.64;75.60;102567.94;5108374;27;45502;-59
2024/01/23 04:08:02;;;;;;;;;0.00;0.00;;;;;8.63;75.48;102575.03;5113546;27;45456;-60
2024/01/23 04:10:27;;;;;;;;;0.67;0.00;;;;;8.61;75.80;102583.00;5117025;27;46050;-59
2024/01/23 04:12:52;;;;;;;;;0.00;0.00;;;;;8.62;75.53;102594.50;5116657;27;73235;-59
2024/01/23 04:15:18;;;;;;;;;0.00;0.00;;;;;8.61;75.67;102592.75;5112309;27;67585;-59
2024/01/23 04:17:43;;;;;;;;;2.00;1.00;;;;;8.63;76.00;102592.72;5116688;27;45588;-59
2024/01/23 04:20:09;;;;;;;;;0.00;0.00;;;;;8.66;75.88;102585.59;5119899;27;75716;-59
2024/01/23 04:22:35;;;;;;;;;0.67;0.00;;;;;8.71;75.45;102588.22;5121239;27;45486;-59
2024/01/23 04:25:00;;;;;;;;;0.00;0.00;;;;;8.76;75.60;102589.88;5121222;27;45476;-59
2024/01/23 04:27:25;;;;;;;;;2.00;1.00;;;;;8.81;75.34;102589.81;5114146;27;48005;-59
2024/01/23 04:29:51;;;;;;;;;0.00;0.00;;;;;8.86;75.22;102595.91;5114374;27;46234;-59
2024/01/23 04:32:19;;;;;;;;;3.00;1.00;;;;;8.89;75.09;102590.59;5116208;27;46154;-59
2024/01/23 04:34:45;;;;;;;;;1.67;0.00;;;;;8.91;75.31;102590.56;5115492;27;45419;-59
2024/01/23 04:37:10;;;;;;;;;0.00;0.00;;;;;8.94;75.19;102601.13;5118924;27;45544;-59
2024/01/23 04:39:35;;;;;;;;;2.00;0.00;;;;;8.96;74.79;102607.31;5120267;27;57750;-59
2024/01/23 04:42:00;;;;;;;;;0.00;0.00;;;;;8.99;75.19;102611.69;5123509;27;60951;-59
2024/01/23 04:44:26;;;;;;;;;1.00;1.00;;;;;9.00;75.17;102616.97;5110288;27;53876;-59
2024/01/23 04:46:51;;;;;;;;;1.33;0.00;;;;;9.03;75.23;102618.69;5108513;27;70205;-59
2024/01/23 04:49:17;;;;;;;;;2.00;1.67;;;;;9.02;74.94;102627.56;5142406;27;46098;-59
2024/01/23 04:51:42;;;;;;;;;0.00;0.00;;;;;9.02;74.84;102630.22;5117724;27;69767;-60
2024/01/23 04:54:07;;;;;;;;;2.00;0.00;;;;;9.04;74.89;102637.25;5118922;27;45388;-59
2024/01/23 04:56:33;;;;;;;;;0.00;0.00;;;;;9.07;74.95;102636.34;5124258;27;48079;-59
2024/01/23 04:58:58;;;;;;;;;2.00;0.33;;;;;9.09;74.71;102646.03;5119385;27;75486;-59
2024/01/23 05:01:23;;;;;;;;;0.00;0.00;;;;;9.10;74.81;102653.09;5116194;27;71634;-58
2024/01/23 05:03:48;;;;;;;;;3.00;0.00;;;;;9.12;74.83;102657.53;5115498;27;67554;-58
2024/01/23 05:06:14;;;;;;;;;1.67;0.67;;;;;9.12;74.99;102657.53;5117473;27;70225;-58
2024/01/23 05:08:39;;;;;;;;;0.33;0.33;;;;;9.09;74.96;102650.47;5117914;27;73921;-58
2024/01/23 05:11:04;;;;;;;;;0.67;0.67;;;;;9.08;75.21;102649.59;5121057;27;73319;-58
2024/01/23 05:13:30;;;;;;;;;1.00;0.67;;;;;9.04;74.74;102645.22;5118710;27;46035;-58
2024/01/23 05:15:55;;;;;;;;;1.00;1.00;;;;;9.02;74.86;102662.06;5105317;27;68588;-58
2024/01/23 05:18:20;;;;;;;;;1.00;1.00;;;;;8.99;75.20;102662.97;5117038;27;68060;-58
2024/01/23 05:20:46;;;;;;;;;1.00;1.00;;;;;8.95;75.52;102655.97;5116986;27;45184;-59
2024/01/23 05:23:11;;;;;;;;;1.00;1.00;;;;;8.90;75.42;102641.88;5092399;27;45402;-58
2024/01/23 05:25:38;;;;;;;;;1.67;0.00;;;;;8.86;75.38;102650.78;5112694;27;69018;-58
2024/01/23 05:28:04;;;;;;;;;1.00;1.00;;;;;8.84;75.74;102657.88;5111485;27;45466;-58
2024/01/23 05:30:29;;;;;;;;;2.33;0.00;;;;;8.84;75.69;102674.69;5106836;27;45396;-58
2024/01/23 05:32:54;;;;;;;;;4.00;1.00;;;;;8.84;75.09;102677.34;5119825;27;45672;-58
2024/01/23 05:35:20;;;;;;;;;1.00;1.00;;;;;8.82;75.62;102680.91;5117520;27;45901;-58
2024/01/23 05:37:45;;;;;;;;;3.00;0.00;;;;;8.83;75.90;102682.69;5108396;27;73025;-59
2024/01/23 05:40:11;;;;;;;;;2.00;1.00;;;;;8.83;75.77;102685.34;5111061;27;70741;-59
2024/01/23 05:42:36;;;;;;;;;0.00;0.00;;;;;8.82;75.96;102694.19;5118443;27;45436;-58
2024/01/23 05:45:03;;;;;;;;;1.33;0.00;;;;;8.81;75.92;102692.44;5152111;27;45285;-58
2024/01/23 05:47:28;;;;;;;;;0.00;0.00;;;;;8.79;76.19;102705.72;5118751;27;46300;-58
2024/01/23 05:49:54;;;;;;;;;3.00;1.00;;;;;8.81;76.11;102705.69;5119503;27;45221;-58
2024/01/23 05:52:19;;;;;;;;;1.33;1.00;;;;;8.81;76.28;102703.91;5113242;27;66221;-58
2024/01/23 05:54:44;;;;;;;;;2.00;1.00;;;;;8.84;76.54;102709.19;5111769;27;57807;-58
2024/01/23 05:57:10;;;;;;;;;6.00;3.33;;;;;8.85;76.43;102724.22;5117275;27;47109;-58
2024/01/23 05:59:36;;;;;;;;;0.00;0.00;;;;;8.86;76.63;102725.09;5111357;27;45470;-58
2024/01/23 06:02:02;;;;;;;;;1.33;1.33;;;;;8.88;76.84;102732.13;5113607;27;45268;-58
2024/01/23 06:04:28;;;;;;;;;1.00;1.00;;;;;8.91;76.84;102733.88;5110226;27;45373;-58
2024/01/23 06:06:53;;;;;;;;;3.00;1.67;;;;;8.96;76.31;102731.16;5114125;27;74444;-58
2024/01/23 06:09:18;;;;;;;;;0.00;0.00;;;;;8.96;76.79;102725.84;5115680;27;73325;-58
2024/01/23 06:11:44;;;;;;;;;1.33;1.33;;;;;8.98;76.95;102737.34;5118847;27;56106;-58
2024/01/23 06:14:09;;;;;;;;;1.00;1.00;;;;;9.01;76.74;102729.31;5119003;27;45338;-56
2024/01/23 06:16:34;;;;;;;;;2.00;1.00;;;;;9.03;77.09;102739.03;5110093;27;45836;-58
2024/01/23 06:19:00;;;;;;;;;1.00;1.00;;;;;9.06;76.83;102739.00;5114904;27;70734;-58
2024/01/23 06:21:25;;;;;;;;;3.67;1.00;;;;;9.10;76.83;102740.72;5105558;27;45592;-58
2024/01/23 06:23:50;;;;;;;;;1.00;1.00;;;;;9.13;76.99;102729.19;5115689;27;62837;-58
2024/01/23 06:26:16;;;;;;;;;1.00;1.00;;;;;9.15;76.60;102731.81;5117288;27;71294;-58
2024/01/23 06:28:42;;;;;;;;;1.67;1.00;;;;;9.16;76.54;102729.13;5105814;27;45424;-58
2024/01/23 06:31:07;;;;;;;;;3.00;1.00;;;;;9.18;76.54;102737.97;5114849;27;45528;-58
2024/01/23 06:33:33;;;;;;;;;0.00;0.00;;;;;9.20;76.61;102730.84;5107177;27;69164;-59
2024/01/23 06:35:58;;;;;;;;;1.00;1.00;;;;;9.21;76.65;102740.56;5110763;27;47127;-59
2024/01/23 06:38:24;;;;;;;;;1.33;0.00;;;;;9.24;76.55;102734.34;5115942;27;68010;-59
2024/01/23 06:40:49;;;;;;;;;0.00;0.00;;;;;9.26;76.12;102738.72;5117386;27;68581;-59
2024/01/23 06:43:14;;;;;;;;;1.00;0.00;;;;;9.26;76.46;102735.19;5118271;27;56355;-59
2024/01/23 06:45:40;;;;;;;;;0.00;0.00;;;;;9.30;76.57;102734.25;5117080;27;70874;-59
2024/01/23 06:48:05;;;;;;;;;4.00;1.00;;;;;9.30;76.07;102733.38;5118377;27;45621;-59
2024/01/23 06:50:30;;;;;;;;;0.00;0.00;;;;;9.29;75.85;102736.94;5120880;27;45710;-59
2024/01/23 06:52:56;;;;;;;;;4.33;1.00;;;;;9.27;76.04;102737.84;5115445;27;67055;-59
2024/01/23 06:55:21;;;;;;;;;2.33;1.33;;;;;9.25;76.70;102730.78;5118995;27;74447;-59
2024/01/23 06:57:47;;;;;;;;;1.33;1.00;;;;;9.26;76.90;102737.84;5115712;27;71167;-58
2024/01/23 07:00:13;;;;;;;;;5.00;1.33;;;;;9.29;76.16;102745.78;5119179;27;54392;-60
2024/01/23 07:02:38;;;;;;;;;0.33;0.00;;;;;9.29;76.26;102751.09;5121761;27;45327;-59
2024/01/23 07:05:04;;;;;;;;;1.00;1.00;;;;;9.29;76.54;102744.91;5125806;27;71382;-59
2024/01/23 07:07:29;;;;;;;;;2.33;2.00;;;;;9.27;76.28;102752.91;5129648;27;45461;-59
2024/01/23 07:09:54;;;;;;;;;2.00;1.67;;;;;9.26;75.88;102757.31;5121218;27;45412;-59
2024/01/23 07:12:20;;;;;;;;;1.00;1.00;;;;;9.23;76.54;102759.13;5120787;27;45557;-59
2024/01/23 07:14:46;;;;;;;;;3.00;1.67;;;;;9.24;76.67;102766.19;5121545;27;46248;-58
2024/01/23 07:17:11;;;;;;;;;1.67;1.67;;;;;9.23;76.39;102775.97;5120523;27;45514;-59
2024/01/23 07:19:37;;;;;;;;;3.00;1.67;;;;;9.24;76.86;102769.75;5120477;27;45412;-59
2024/01/23 07:22:02;;;;;;;;;2.00;2.00;;;;;9.24;76.57;102777.72;5121021;27;58513;-59
2024/01/23 07:24:28;;;;;;;;;1.00;1.00;;;;;9.23;76.98;102781.25;5123096;27;46508;-59
2024/01/23 07:26:53;;;;;;;;;2.33;2.33;;;;;9.25;76.73;102770.63;5122227;27;48348;-59
2024/01/23 07:29:18;;;;;;;;;3.00;1.33;;;;;9.26;77.08;102775.91;5111124;27;68281;-59
2024/01/23 07:31:43;;;;;;;;;2.33;1.67;;;;;9.29;76.57;102772.31;5120841;27;55454;-58
2024/01/23 07:34:09;;;;;;;;;4.00;2.00;;;;;9.30;76.39;102768.78;5117678;27;65274;-59
2024/01/23 07:36:35;;;;;;;;;3.33;2.00;;;;;9.31;76.52;102764.34;5116010;27;45451;-59
2024/01/23 07:39:00;;;;;;;;;3.00;2.00;;;;;9.31;77.32;102764.34;5117959;27;45405;-59
2024/01/23 07:41:26;;;;;;;;;2.00;1.00;;;;;9.30;77.32;102771.44;5124759;27;45621;-59
2024/01/23 07:43:51;;;;;;;;;7.00;1.00;;;;;9.30;77.38;102765.25;5132683;27;73663;-59
2024/01/23 07:46:17;;;;;;;;;0.67;0.67;;;;;9.33;77.68;102771.38;5109670;27;66943;-59
2024/01/23 07:48:43;;;;;;;;;2.00;2.00;;;;;9.32;77.49;102782.03;5115808;27;45425;-59
2024/01/23 07:51:08;;;;;;;;;4.67;3.00;;;;;9.34;77.08;102789.09;5117733;27;45467;-57
2024/01/23 07:53:34;;;;;;;;;5.00;1.33;;;;;9.35;77.22;102779.34;5122257;27;45376;-58
2024/01/23 07:56:00;;;;;;;;;3.33;1.33;;;;;9.35;77.32;102790.84;5118322;27;45306;-58
2024/01/23 07:58:25;;;;;;;;;3.67;1.00;;;;;9.37;77.42;102790.81;5119443;27;45383;-58
2024/01/23 08:00:50;;;;;;;;;0.00;0.00;;;;;9.38;77.66;102803.22;5116439;27;67446;-58
2024/01/23 08:03:16;;;;;;;;;3.00;1.00;;;;;9.40;77.18;102799.63;5119453;27;72388;-59
2024/01/23 08:05:41;;;;;;;;;1.00;1.00;;;;;9.40;77.79;102804.06;5101537;27;72037;-65
2024/01/23 08:08:06;;;;;;;;;2.00;2.00;;;;;9.43;77.48;102801.38;5119168;27;45475;-60
2024/01/23 08:10:34;;;;;;;;;3.33;1.00;;;;;9.48;78.06;102801.28;5120170;27;45538;-59
2024/01/23 08:12:59;;;;;;;;;1.00;0.67;;;;;9.54;77.73;102812.75;5120591;27;46329;-59
2024/01/23 08:15:24;;;;;;;;;7.00;2.00;;;;;9.60;77.68;102811.75;5121018;27;45463;-60
2024/01/23 08:17:50;;;;;;;;;4.00;1.33;;;;;9.66;77.53;102817.00;5121078;27;45315;-59
2024/01/23 08:20:15;;;;;;;;;2.33;1.00;;;;;9.70;76.99;102816.06;5119620;27;45678;-59
2024/01/23 08:22:41;;;;;;;;;2.67;2.67;;;;;9.72;77.84;102813.38;5119591;27;66124;-61
2024/01/23 08:25:07;;;;;;;;;2.00;1.00;;;;;9.73;77.29;102817.78;5126202;27;45254;-59
2024/01/23 08:27:32;;;;;;;;;6.00;2.00;;;;;9.73;77.45;102815.13;5119779;27;45461;-59
2024/01/23 08:29:57;;;;;;;;;1.00;1.00;;;;;9.74;77.51;102817.75;5106623;27;69992;-59
2024/01/23 08:32:23;;;;;;;;;2.33;2.00;;;;;9.74;77.24;102815.09;5118305;27;56250;-59
2024/01/23 08:34:48;;;;;;;;;1.00;1.00;;;;;9.74;77.22;102811.59;5117490;27;53756;-59
2024/01/23 08:37:14;;;;;;;;;3.67;2.00;;;;;9.74;77.34;102809.78;5120262;27;56895;-59
2024/01/23 08:39:40;;;;;;;;;1.00;1.00;;;;;9.80;77.66;102813.25;5119226;27;45698;-58
2024/01/23 08:42:05;;;;;;;;;3.33;1.00;;;;;9.88;77.14;102809.59;5120499;27;45408;-58
2024/01/23 08:44:30;;;;;;;;;1.67;1.67;;;;;9.92;77.12;102819.28;5118897;27;58813;-59
2024/01/23 08:46:56;;;;;;;;;2.00;2.00;;;;;9.97;76.97;102824.50;5120766;27;61472;-58
2024/01/23 08:49:21;;;;;;;;;2.67;2.67;;;;;9.99;77.36;102824.50;5119337;27;45507;-58
2024/01/23 08:51:47;;;;;;;;;0.67;0.33;;;;;9.97;77.31;102829.81;5118636;27;75050;-58
2024/01/23 08:54:18;;;;;;;;;3.67;2.00;;;;;9.98;77.16;102820.94;5118144;27;62397;-58
2024/01/23 08:56:44;;;;;;;;;4.67;2.67;;;;;10.00;77.44;102818.25;5121059;27;45490;-58
2024/01/23 08:59:09;;;;;;;;;2.00;2.00;;;;;10.04;77.29;102815.53;5119474;27;45326;-59
2024/01/23 09:01:34;;;;;;;;;2.00;2.00;;;;;10.10;77.23;102820.78;5119023;27;64692;-58
2024/01/23 09:04:00;;;;;;;;;0.67;0.67;;;;;10.17;77.28;102820.66;5118813;27;64668;-58
2024/01/23 09:06:25;;;;;;;;;2.00;2.00;;;;;10.25;77.07;102826.75;5118365;27;69659;-59
2024/01/23 09:08:50;;;;;;;;;4.67;2.00;;;;;10.34;76.63;102817.72;5120031;27;59263;-58
2024/01/23 09:11:16;;;;;;;;;3.00;3.00;;;;;10.45;76.02;102825.56;5118344;27;60457;-58
2024/01/23 09:13:42;;;;;;;;;1.33;1.33;;;;;10.52;76.18;102821.88;5119048;27;45446;-58
2024/01/23 09:16:07;;;;;;;;;1.00;1.00;;;;;10.58;76.18;102825.28;5116884;27;60811;-59
2024/01/23 09:18:32;;;;;;;;;4.33;2.33;;;;;10.71;76.15;102822.44;5120492;27;45269;-59
2024/01/23 09:21:02;;;;;;;;;4.33;2.00;;;;;10.82;75.67;102812.47;5120398;27;45324;-58
2024/01/23 09:23:27;;;;;;;;;2.00;1.00;;;;;10.91;75.45;102809.63;5118158;27;45393;-59
2024/01/23 09:25:52;;;;;;;;;1.00;1.00;;;;;10.99;74.92;102817.47;5116684;27;69200;-58
2024/01/23 09:28:18;;;;;;;;;1.00;1.00;;;;;11.05;74.93;102813.78;5118736;27;65007;-58
2024/01/23 09:30:43;;;;;;;;;2.67;1.00;;;;;11.12;74.66;102807.44;5119303;27;75141;-59
2024/01/23 09:33:09;;;;;;;;;2.00;2.00;;;;;11.16;74.33;102810.91;5115725;27;67372;-59
2024/01/23 09:35:35;;;;;;;;;3.00;2.00;;;;;11.14;74.14;102815.41;5120428;27;45506;-58
2024/01/23 09:38:01;;;;;;;;;5.33;4.00;;;;;11.11;74.29;102812.78;5119712;27;45471;-58
2024/01/23 09:40:26;;;;;;;;;4.00;2.67;;;;;11.07;73.97;102809.31;5119788;27;46022;-58
2024/01/23 09:42:55;;;;;;;;;3.67;2.00;;;;;11.05;74.04;102796.00;5118475;27;45519;-58
2024/01/23 09:45:25;;;;;;;;;1.67;1.00;;;;;11.05;73.84;102798.69;5119913;27;45433;-58
2024/01/23 09:47:51;;;;;;;;;0.67;0.67;;;;;11.07;73.82;102806.66;5115687;27;45326;-58
2024/01/23 09:50:17;;;;;;;;;4.00;2.00;;;;;11.06;73.85;102796.91;5116477;27;74487;-58
2024/01/23 09:52:44;;;;;;;;;4.33;2.00;;;;;11.08;73.90;102797.75;5119619;27;45376;-59
2024/01/23 09:55:10;;;;;;;;;3.33;3.00;;;;;11.05;73.38;102796.00;5130998;27;45408;-59
2024/01/23 09:57:38;;;;;;;;;3.67;1.67;;;;;10.99;73.66;102780.19;5118703;27;59919;-59
2024/01/23 10:00:06;;;;;;;;;1.67;1.00;;;;;10.99;73.86;102782.84;5114479;27;45642;-59
2024/01/23 10:02:32;;;;;;;;;3.00;2.00;;;;;10.99;73.43;102779.28;5108107;27;45530;-59
2024/01/23 10:04:57;;;;;;;;;2.00;2.00;;;;;11.00;73.82;102778.38;5118937;27;45252;-59
2024/01/23 10:07:23;;;;;;;;;3.33;2.00;;;;;11.01;73.87;102774.81;5111658;27;63629;-58
2024/01/23 10:09:48;;;;;;;;;2.00;1.00;;;;;11.00;73.81;102773.06;5119030;27;47166;-58
2024/01/23 10:12:14;;;;;;;;;2.67;1.00;;;;;11.00;73.83;102776.63;5114133;27;45337;-59
2024/01/23 10:14:43;;;;;;;;;1.00;1.00;;;;;10.98;73.67;102778.44;5113243;27;51242;-59
2024/01/23 10:17:09;;;;;;;;;3.00;2.00;;;;;11.00;73.88;102778.38;5110564;27;45527;-59
2024/01/23 10:19:34;;;;;;;;;4.00;3.00;;;;;10.97;73.55;102771.34;5112854;27;46128;-59
2024/01/23 10:22:00;;;;;;;;;2.33;1.33;;;;;10.92;73.91;102773.22;5102740;27;73010;-59
2024/01/23 10:24:25;;;;;;;;;3.00;3.00;;;;;10.88;73.71;102771.53;5102084;27;69342;-59
2024/01/23 10:26:50;;;;;;;;;4.33;2.33;;;;;10.85;73.77;102774.25;5104004;27;69421;-59
2024/01/23 10:29:15;;;;;;;;;5.33;2.67;;;;;10.82;74.00;102775.19;5111002;27;76470;-58
2024/01/23 10:31:41;;;;;;;;;5.33;3.67;;;;;10.80;74.03;102778.78;5111326;27;74273;-59
2024/01/23 10:34:10;;;;;;;;;2.00;2.00;;;;;10.78;74.26;102775.28;5117054;27;45354;-59
2024/01/23 10:36:35;;;;;;;;;3.33;3.33;;;;;10.81;74.62;102780.53;5105592;27;45640;-58
2024/01/23 10:39:01;;;;;;;;;5.33;3.67;;;;;10.85;74.40;102793.75;5109616;27;65650;-58
2024/01/23 10:41:28;;;;;;;;;5.00;3.00;;;;;10.85;74.49;102795.56;5111321;27;73065;-58
2024/01/23 10:43:56;;;;;;;;;2.67;1.67;;;;;10.85;74.60;102804.41;5114611;27;63600;-58
2024/01/23 10:46:22;;;;;;;;;1.00;1.00;;;;;10.87;75.05;102807.03;5110098;27;45527;-58
2024/01/23 10:48:48;;;;;;;;;1.33;1.33;;;;;10.88;74.97;102800.81;5114639;27;45589;-58
2024/01/23 10:51:18;;;;;;;;;5.00;2.00;;;;;10.86;76.15;102770.66;5085154;27;53611;-58
2024/01/23 10:54:08;;;;;;;;;4.00;3.67;;;;;10.84;76.17;102735.22;5104423;27;45485;-58
2024/01/23 10:56:44;;;;;;;;;5.00;3.00;;;;;10.79;78.17;102735.31;5115600;27;45406;-58
2024/01/23 10:59:16;;;;;;;;;3.00;3.00;;;;;10.69;80.51;102744.38;5107439;27;46338;-58
2024/01/23 11:01:46;;;;;;;;;7.00;5.33;;;;;10.65;79.65;102750.69;5104709;27;45419;-61
2024/01/23 11:04:12;;;;;;;;;3.67;3.00;;;;;10.63;79.25;102760.50;5117909;27;45490;-58
2024/01/23 11:06:54;;;;;;;;;10.67;6.00;;;;;10.59;80.15;102747.22;5113725;27;45621;-58
2024/01/23 11:09:22;;;;;;;;;8.33;8.00;;;;;10.61;79.78;102738.34;5107183;27;46274;-59
2024/01/23 11:12:04;;;;;;;;;6.67;5.00;;;;;10.62;81.19;102719.69;5114842;27;45514;-59
2024/01/23 11:14:38;;;;;;;;;4.67;4.00;;;;;10.60;81.14;102705.53;5111878;27;45296;-58
2024/01/23 11:17:13;;;;;;;;;4.00;4.00;;;;;10.61;81.37;102715.25;5137832;27;45486;-59
2024/01/23 11:19:42;;;;;;;;;4.00;2.33;;;;;10.62;82.09;102710.84;5119980;27;47054;-59
2024/01/23 11:22:08;;;;;;;;;7.33;4.00;;;;;10.70;81.71;102696.47;5117720;27;45852;-59
2024/01/23 11:24:45;;;;;;;;;8.67;3.00;;;;;10.79;81.73;102689.19;5120489;27;45469;-58